createdAt,value
2018-12-01T00:01:39.781Z,27.7
2018-12-01T00:04:45.645Z,27.6
2018-12-01T00:07:51.598Z,27.5
2018-12-01T00:10:57.557Z,27.4
2018-12-01T00:14:04.638Z,27.6
2018-12-01T00:17:10.657Z,27.5
2018-12-01T00:20:16.490Z,27.3
2018-12-01T00:23:22.480Z,27.1
2018-12-01T00:26:28.578Z,27
2018-12-01T00:29:34.467Z,27.1
2018-12-01T00:32:40.496Z,27
2018-12-01T00:35:46.452Z,27
2018-12-01T00:38:52.515Z,26.8
2018-12-01T00:41:58.390Z,26.7
2018-12-01T00:45:04.330Z,26.7
2018-12-01T00:48:10.201Z,26.6
2018-12-01T00:51:16.251Z,26.6
2018-12-01T00:54:22.136Z,26.6
2018-12-01T00:57:28.168Z,26.6
2018-12-01T01:00:34.062Z,26.4
2018-12-01T01:03:39.984Z,26.3
2018-12-01T01:06:45.856Z,26.3
2018-12-01T01:09:51.905Z,26.2
2018-12-01T01:12:57.963Z,26.2
2018-12-01T01:16:03.868Z,26.2
2018-12-01T01:19:09.782Z,26.2
2018-12-01T01:22:15.657Z,26
2018-12-01T01:25:21.754Z,25.9
2018-12-01T01:28:27.662Z,25.9
2018-12-01T01:31:33.614Z,25.9
2018-12-01T01:34:39.490Z,25.9
2018-12-01T01:37:45.558Z,25.9
2018-12-01T01:40:51.493Z,25.8
2018-12-01T01:43:57.555Z,25.8
2018-12-01T01:47:03.428Z,25.6
2018-12-01T01:50:09.372Z,25.6
2018-12-01T01:53:15.335Z,25.7
2018-12-01T01:56:21.293Z,25.7
2018-12-01T01:59:27.166Z,25.6
2018-12-01T02:02:33.110Z,25.7
2018-12-01T02:05:39.074Z,25.6
2018-12-01T02:08:44.940Z,25.5
2018-12-01T02:11:50.991Z,25.5
2018-12-01T02:14:56.943Z,25.6
2018-12-01T02:18:02.907Z,25.7
2018-12-01T02:21:08.866Z,25.6
2018-12-01T02:24:14.928Z,25.4
2018-12-01T02:27:20.810Z,25.5
2018-12-01T02:30:26.845Z,25.3
2018-12-01T02:33:32.719Z,25.3
2018-12-01T02:36:38.663Z,25.4
2018-12-01T02:39:44.723Z,25.4
2018-12-01T02:42:50.680Z,25.4
2018-12-01T02:45:56.640Z,25.4
2018-12-01T02:49:02.704Z,25.4
2018-12-01T02:52:08.663Z,25.4
2018-12-01T02:55:14.621Z,25.4
2018-12-01T02:58:20.683Z,25.3
2018-12-01T03:01:26.641Z,25.3
2018-12-01T03:04:32.521Z,25.2
2018-12-01T03:07:38.564Z,25
2018-12-01T03:10:44.624Z,25.1
2018-12-01T03:13:50.509Z,25.2
2018-12-01T03:16:56.442Z,25.3
2018-12-01T03:20:02.505Z,25.2
2018-12-01T03:23:08.399Z,25.2
2018-12-01T03:26:14.317Z,25.1
2018-12-01T03:29:20.188Z,25.2
2018-12-01T03:32:26.233Z,25.3
2018-12-01T03:35:32.295Z,25.3
2018-12-01T03:38:38.189Z,25.3
2018-12-01T03:41:44.214Z,25.3
2018-12-01T03:44:50.151Z,25.4
2018-12-01T03:47:56.059Z,25.2
2018-12-01T03:51:01.934Z,25.1
2018-12-01T03:54:07.948Z,25.3
2018-12-01T03:57:13.911Z,25.4
2018-12-01T04:00:19.980Z,25.3
2018-12-01T04:03:25.929Z,25.2
2018-12-01T04:06:31.806Z,25.2
2018-12-01T04:09:37.746Z,25.1
2018-12-01T04:12:43.834Z,25
2018-12-01T04:15:49.999Z,25.1
2018-12-01T04:18:56.240Z,25.1
2018-12-01T04:22:02.198Z,25.1
2018-12-01T04:25:08.167Z,25.2
2018-12-01T04:28:14.225Z,25.1
2018-12-01T04:31:20.285Z,25
2018-12-01T04:34:26.242Z,25.1
2018-12-01T04:37:32.200Z,25.3
2018-12-01T04:40:38.181Z,25.3
2018-12-01T04:43:44.135Z,25.3
2018-12-01T04:46:50.078Z,25.3
2018-12-01T04:49:55.962Z,25.3
2018-12-01T04:53:01.997Z,25.2
2018-12-01T04:56:07.955Z,25.3
2018-12-01T04:59:13.915Z,25.2
2018-12-01T05:02:20.083Z,25.3
2018-12-01T05:05:26.210Z,25.2
2018-12-01T05:08:32.105Z,25.2
2018-12-01T05:11:37.982Z,25.2
2018-12-01T05:14:44.034Z,25.2
2018-12-01T05:17:50.108Z,25.2
2018-12-01T05:20:56.050Z,25.3
2018-12-01T05:24:01.941Z,25.3
2018-12-01T05:27:07.962Z,25.3
2018-12-01T05:30:13.850Z,25.2
2018-12-01T05:33:19.883Z,25.2
2018-12-01T05:36:25.845Z,25.3
2018-12-01T05:39:31.814Z,25.4
2018-12-01T05:42:37.768Z,25.2
2018-12-01T05:45:43.698Z,25.2
2018-12-01T05:48:49.578Z,25.2
2018-12-01T05:51:55.453Z,25.2
2018-12-01T05:55:01.390Z,25.2
2018-12-01T05:58:07.264Z,25.3
2018-12-01T06:01:16.281Z,25.3
2018-12-01T06:04:22.243Z,25.1
2018-12-01T06:07:28.195Z,25.1
2018-12-01T06:10:34.158Z,25.2
2018-12-01T06:13:40.220Z,25.2
2018-12-01T06:16:46.086Z,25.2
2018-12-01T06:19:52.135Z,25.2
2018-12-01T06:22:58.094Z,25
2018-12-01T06:26:04.055Z,25.2
2018-12-01T06:29:12.736Z,25
2018-12-01T06:32:18.840Z,25.2
2018-12-01T06:35:24.713Z,25.1
2018-12-01T06:38:30.760Z,25.1
2018-12-01T06:41:36.715Z,25.2
2018-12-01T06:44:42.615Z,25
2018-12-01T06:47:48.634Z,25.1
2018-12-01T06:50:54.513Z,24.8
2018-12-01T06:54:00.454Z,24.8
2018-12-01T06:57:06.322Z,24.8
2018-12-01T07:00:12.368Z,25.2
2018-12-01T07:03:18.250Z,25.2
2018-12-01T07:06:27.057Z,24.9
2018-12-01T07:09:33.013Z,24.8
2018-12-01T07:12:38.938Z,24.7
2018-12-01T07:15:44.928Z,24.8
2018-12-01T07:18:51.705Z,24.8
2018-12-01T07:21:57.879Z,24.8
2018-12-01T07:25:03.857Z,24.7
2018-12-01T07:28:09.796Z,24.6
2018-12-01T07:31:15.677Z,24.4
2018-12-01T07:34:21.709Z,24.1
2018-12-01T07:37:27.781Z,23.9
2018-12-01T07:40:33.648Z,23.8
2018-12-01T07:43:39.690Z,23.5
2018-12-01T07:46:45.567Z,23.6
2018-12-01T07:49:51.613Z,23.8
2018-12-01T07:52:57.485Z,24.4
2018-12-01T07:56:03.630Z,23.8
2018-12-01T07:59:09.567Z,24.6
2018-12-01T08:02:15.550Z,24.9
2018-12-01T08:05:21.515Z,24.6
2018-12-01T08:08:27.475Z,24.5
2018-12-01T08:11:33.428Z,24.4
2018-12-01T08:14:39.591Z,24.6
2018-12-01T08:17:45.552Z,24.1
2018-12-01T08:20:52.561Z,23.9
2018-12-01T08:23:58.506Z,23.8
2018-12-01T08:27:04.444Z,23.6
2018-12-01T08:30:10.425Z,23.8
2018-12-01T08:33:16.382Z,23.6
2018-12-01T08:36:25.414Z,23.5
2018-12-01T08:39:31.475Z,23.2
2018-12-01T08:42:37.381Z,23.4
2018-12-01T08:45:43.494Z,23.5
2018-12-01T08:48:49.432Z,23.5
2018-12-01T08:51:55.415Z,23.5
2018-12-01T08:55:01.353Z,23.8
2018-12-01T08:58:07.331Z,23.4
2018-12-01T09:01:13.197Z,23.4
2018-12-01T09:04:19.247Z,23.7
2018-12-01T09:07:25.409Z,23.6
2018-12-01T09:10:31.471Z,23.5
2018-12-01T09:13:37.544Z,23.5
2018-12-01T09:16:43.600Z,23.7
2018-12-01T09:19:49.658Z,23.3
2018-12-01T09:22:55.618Z,24.2
2018-12-01T09:26:01.691Z,24.1
2018-12-01T09:29:07.739Z,24.1
2018-12-01T09:32:13.707Z,24.3
2018-12-01T09:35:19.658Z,24.2
2018-12-01T09:38:25.633Z,24.2
2018-12-01T09:41:31.676Z,24
2018-12-01T09:44:37.552Z,23.9
2018-12-01T09:47:43.599Z,23.9
2018-12-01T09:50:49.534Z,23.8
2018-12-01T09:53:58.079Z,23.9
2018-12-01T09:57:04.145Z,23.7
2018-12-01T10:00:10.080Z,24.2
2018-12-01T10:03:16.055Z,23.9
2018-12-01T10:06:21.931Z,23.9
2018-12-01T10:09:27.878Z,23.9
2018-12-01T10:12:33.829Z,23.8
2018-12-01T10:15:39.787Z,23.8
2018-12-01T10:18:45.767Z,23.7
2018-12-01T10:21:51.865Z,23.7
2018-12-01T10:24:57.973Z,23.8
2018-12-01T10:28:04.044Z,23.8
2018-12-01T10:31:10.006Z,23.9
2018-12-01T10:34:18.925Z,23.9
2018-12-01T10:37:25.189Z,23.9
2018-12-01T10:40:31.066Z,24
2018-12-01T10:43:37.122Z,23.9
2018-12-01T10:46:46.113Z,23.9
2018-12-01T10:49:52.107Z,24
2018-12-01T10:52:57.985Z,24
2018-12-01T10:56:03.991Z,23.8
2018-12-01T10:59:10.022Z,24.1
2018-12-01T11:02:16.045Z,24.6
2018-12-01T11:05:21.921Z,24.1
2018-12-01T11:08:27.955Z,24.3
2018-12-01T11:11:34.039Z,24.6
2018-12-01T11:14:39.988Z,24.3
2018-12-01T11:17:48.695Z,24.4
2018-12-01T11:20:54.674Z,24.7
2018-12-01T11:24:00.835Z,25
2018-12-01T11:27:06.893Z,25.3
2018-12-01T11:30:15.615Z,24.6
2018-12-01T11:33:21.581Z,25
2018-12-01T11:36:27.639Z,25.2
2018-12-01T11:39:33.807Z,24.9
2018-12-01T11:42:39.868Z,24.5
2018-12-01T11:45:45.822Z,24.4
2018-12-01T11:48:51.888Z,24.4
2018-12-01T11:51:57.859Z,24.3
2018-12-01T11:55:04.000Z,24.3
2018-12-01T11:58:09.960Z,24.3
2018-12-01T12:01:15.919Z,24.2
2018-12-01T12:04:21.884Z,24.3
2018-12-01T12:07:28.050Z,24.2
2018-12-01T12:10:34.108Z,24.2
2018-12-01T12:13:39.980Z,24.2
2018-12-01T12:16:46.027Z,24.2
2018-12-01T12:19:51.992Z,24
2018-12-01T12:22:57.956Z,24
2018-12-01T12:26:03.833Z,23.9
2018-12-01T12:29:09.878Z,23.9
2018-12-01T12:32:15.818Z,24
2018-12-01T12:35:21.988Z,24
2018-12-01T12:38:27.948Z,23.9
2018-12-01T12:41:33.846Z,24.2
2018-12-01T12:44:39.912Z,24.1
2018-12-01T12:47:45.929Z,24
2018-12-01T12:50:53.845Z,24.2
2018-12-01T12:53:59.974Z,24.1
2018-12-01T12:57:05.935Z,24.1
2018-12-01T13:00:11.924Z,24.1
2018-12-01T13:03:17.996Z,24.2
2018-12-01T13:06:24.141Z,24.3
2018-12-01T13:09:32.925Z,24.4
2018-12-01T13:12:38.880Z,24.3
2018-12-01T13:15:44.890Z,24.3
2018-12-01T13:18:50.946Z,24.2
2018-12-01T13:21:56.857Z,24.2
2018-12-01T13:25:02.877Z,24.1
2018-12-01T13:28:08.824Z,24.1
2018-12-01T13:31:14.888Z,23.8
2018-12-01T13:34:20.793Z,23.8
2018-12-01T13:37:26.813Z,24
2018-12-01T13:40:32.676Z,24.1
2018-12-01T13:43:38.721Z,24.2
2018-12-01T13:46:44.691Z,24.3
2018-12-01T13:49:50.752Z,24.3
2018-12-01T13:52:57.569Z,24.2
2018-12-01T13:56:03.588Z,24.2
2018-12-01T13:59:12.215Z,24.3
2018-12-01T14:02:18.170Z,24.3
2018-12-01T14:05:24.231Z,24.3
2018-12-01T14:08:30.287Z,24.4
2018-12-01T14:11:36.167Z,24.5
2018-12-01T14:14:42.206Z,24.5
2018-12-01T14:17:48.276Z,24.5
2018-12-01T14:20:54.438Z,24.5
2018-12-01T14:24:00.305Z,24.6
2018-12-01T14:27:06.348Z,24.5
2018-12-01T14:30:12.412Z,24.6
2018-12-01T14:33:18.485Z,24.5
2018-12-01T14:36:24.432Z,24.5
2018-12-01T14:39:30.494Z,24.5
2018-12-01T14:42:36.761Z,24.6
2018-12-01T14:45:42.842Z,24.4
2018-12-01T14:48:48.899Z,24.4
2018-12-01T14:51:54.757Z,24.5
2018-12-01T14:55:00.922Z,24.5
2018-12-01T14:58:06.972Z,24.6
2018-12-01T15:01:12.952Z,24.6
2018-12-01T15:04:19.056Z,24.6
2018-12-01T15:07:27.942Z,24.7
2018-12-01T15:10:33.882Z,24.8
2018-12-01T15:13:39.854Z,24.9
2018-12-01T15:16:45.727Z,24.9
2018-12-01T15:19:51.770Z,24.8
2018-12-01T15:22:57.688Z,24.7
2018-12-01T15:26:03.690Z,24.7
2018-12-01T15:29:09.739Z,24.7
2018-12-01T15:32:15.800Z,24.7
2018-12-01T15:35:21.756Z,24.6
2018-12-01T15:38:27.817Z,24.6
2018-12-01T15:41:33.699Z,24.5
2018-12-01T15:44:42.416Z,24.4
2018-12-01T15:47:48.384Z,24.4
2018-12-01T15:50:55.459Z,24.4
2018-12-01T15:54:01.411Z,24.5
2018-12-01T15:57:07.377Z,24.3
2018-12-01T16:00:13.424Z,24.3
2018-12-01T16:03:19.384Z,24.2
2018-12-01T16:06:25.350Z,24.3
2018-12-01T16:09:31.424Z,24.4
2018-12-01T16:12:37.380Z,24.3
2018-12-01T16:15:43.426Z,24.1
2018-12-01T16:18:49.301Z,24.3
2018-12-01T16:21:55.344Z,24.1
2018-12-01T16:25:01.224Z,24.2
2018-12-01T16:28:07.166Z,24.5
2018-12-01T16:31:13.136Z,24.4
2018-12-01T16:34:19.059Z,24.4
2018-12-01T16:37:25.038Z,24.5
2018-12-01T16:40:30.938Z,24.4
2018-12-01T16:43:36.982Z,24.5
2018-12-01T16:46:43.024Z,24.5
2018-12-01T16:49:49.184Z,24.3
2018-12-01T16:52:56.079Z,24.3
2018-12-01T16:56:02.230Z,24.2
2018-12-01T16:59:08.313Z,24.2
2018-12-01T17:02:14.189Z,24.4
2018-12-01T17:05:20.214Z,24.1
2018-12-01T17:08:26.282Z,24
2018-12-01T17:11:32.147Z,24.1
2018-12-01T17:14:38.107Z,24.1
2018-12-01T17:17:44.063Z,24.1
2018-12-01T17:20:50.065Z,24.4
2018-12-01T17:23:56.176Z,24.1
2018-12-01T17:27:02.248Z,24.3
2018-12-01T17:30:08.106Z,24.3
2018-12-01T17:33:16.838Z,24.3
2018-12-01T17:36:22.781Z,24.4
2018-12-01T17:39:28.836Z,24.3
2018-12-01T17:42:34.742Z,24.1
2018-12-01T17:45:40.764Z,24
2018-12-01T17:48:46.657Z,23.9
2018-12-01T17:51:52.778Z,24
2018-12-01T17:54:58.735Z,24
2018-12-01T17:58:04.793Z,24
2018-12-01T18:01:10.669Z,23.9
2018-12-01T18:04:16.677Z,24
2018-12-01T18:07:25.646Z,24
2018-12-01T18:10:31.547Z,24.1
2018-12-01T18:13:37.563Z,24.1
2018-12-01T18:16:44.650Z,24.1
2018-12-01T18:19:50.610Z,24.1
2018-12-01T18:22:56.586Z,24.2
2018-12-01T18:26:02.461Z,24.3
2018-12-01T18:29:08.491Z,24.4
2018-12-01T18:32:14.386Z,24.3
2018-12-01T18:35:20.303Z,24.5
2018-12-01T18:38:26.277Z,24.6
2018-12-01T18:41:32.338Z,25.2
2018-12-01T18:44:38.200Z,25.3
2018-12-01T18:47:46.728Z,25.5
2018-12-01T18:50:52.634Z,25.5
2018-12-01T18:53:58.615Z,25.6
2018-12-01T18:57:04.577Z,25.7
2018-12-01T19:00:10.465Z,25.8
2018-12-01T19:03:16.513Z,25.7
2018-12-01T19:06:22.421Z,25.8
2018-12-01T19:09:28.423Z,25.8
2018-12-01T19:12:34.363Z,25.7
2018-12-01T19:15:40.335Z,26
2018-12-01T19:18:46.216Z,26
2018-12-01T19:21:52.151Z,26
2018-12-01T19:24:58.037Z,26
2018-12-01T19:28:04.784Z,26
2018-12-01T19:31:10.846Z,26.1
2018-12-01T19:34:19.286Z,26.3
2018-12-01T19:37:25.326Z,26.3
2018-12-01T19:40:32.102Z,26.2
2018-12-01T19:43:38.170Z,26
2018-12-01T19:46:44.057Z,26
2018-12-01T19:49:50.087Z,26.1
2018-12-01T19:52:56.146Z,26.2
2018-12-01T19:56:04.754Z,26.3
2018-12-01T19:59:10.729Z,26.1
2018-12-01T20:02:16.638Z,26
2018-12-01T20:05:22.644Z,26.1
2018-12-01T20:08:28.607Z,26.1
2018-12-01T20:11:34.474Z,26.3
2018-12-01T20:14:40.584Z,26.3
2018-12-01T20:17:46.483Z,26.3
2018-12-01T20:20:52.543Z,26.2
2018-12-01T20:23:58.438Z,26.3
2018-12-01T20:27:04.462Z,26.3
2018-12-01T20:30:10.426Z,26.5
2018-12-01T20:33:16.510Z,26.5
2018-12-01T20:36:25.013Z,26.4
2018-12-01T20:39:31.081Z,26.4
2018-12-01T20:42:37.235Z,26.3
2018-12-01T20:45:43.193Z,26.3
2018-12-01T20:48:49.363Z,26.6
2018-12-01T20:51:55.245Z,26.6
2018-12-01T20:55:01.281Z,26.5
2018-12-01T20:58:07.154Z,26.5
2018-12-01T21:01:13.190Z,26.5
2018-12-01T21:04:19.153Z,26.5
2018-12-01T21:07:25.216Z,26.6
2018-12-01T21:10:31.175Z,26.6
2018-12-01T21:13:37.054Z,26.7
2018-12-01T21:16:43.089Z,26.5
2018-12-01T21:19:48.963Z,26.6
2018-12-01T21:22:55.045Z,26.7
2018-12-01T21:26:01.203Z,26.7
2018-12-01T21:29:07.127Z,26.7
2018-12-01T21:32:12.997Z,26.7
2018-12-01T21:35:19.066Z,26.6
2018-12-01T21:38:24.999Z,26.5
2018-12-01T21:41:31.180Z,26.6
2018-12-01T21:44:37.235Z,26.7
2018-12-01T21:47:43.399Z,26.8
2018-12-01T21:50:49.362Z,26.9
2018-12-01T21:53:55.240Z,26.8
2018-12-01T21:57:01.944Z,26.9
2018-12-01T22:00:08.050Z,26.9
2018-12-01T22:03:14.012Z,26.7
2018-12-01T22:06:19.970Z,26.9
2018-12-01T22:09:25.842Z,26.9
2018-12-01T22:12:31.896Z,26.8
2018-12-01T22:15:37.951Z,26.7
2018-12-01T22:18:46.530Z,26.8
2018-12-01T22:21:52.537Z,26.6
2018-12-01T22:24:58.490Z,26.8
2018-12-01T22:28:05.281Z,26.9
2018-12-01T22:31:11.226Z,26.7
2018-12-01T22:34:17.186Z,26.7
2018-12-01T22:37:23.131Z,26.7
2018-12-01T22:40:29.107Z,26.6
2018-12-01T22:43:35.168Z,26.6
2018-12-01T22:46:41.127Z,26.9
2018-12-01T22:49:47.103Z,26.8
2018-12-01T22:52:53.147Z,26.8
2018-12-01T22:55:59.020Z,26.9
2018-12-01T22:59:05.065Z,26.8
2018-12-01T23:02:10.962Z,26.7
2018-12-01T23:05:17.702Z,26.9
2018-12-01T23:08:23.776Z,27
2018-12-01T23:11:29.647Z,27
2018-12-01T23:14:35.588Z,26.7
2018-12-01T23:17:41.549Z,27
2018-12-01T23:20:47.610Z,26.7
2018-12-01T23:23:53.570Z,26.7
2018-12-01T23:26:59.439Z,26.9
2018-12-01T23:30:05.479Z,26.9
2018-12-01T23:33:11.351Z,26.9
2018-12-01T23:36:17.299Z,27
2018-12-01T23:39:23.164Z,27
2018-12-01T23:42:29.151Z,27
2018-12-01T23:45:35.071Z,27.1
2018-12-01T23:48:41.135Z,27.2
2018-12-01T23:51:47.197Z,27.2
2018-12-01T23:54:53.147Z,27.1
2018-12-01T23:57:59.111Z,27.1
